sensor_id;sensor_type;location;lat;lon;timestamp;P1;durP1;ratioP1;P2;durP2;ratioP2
74788;SDS011;63313;48.258;12.518;2023-05-23T00:03:39;23.599999999999998;;;16.2;;
74788;SDS011;63313;48.258;12.518;2023-05-23T00:09:06;22.150000000000002;;;15.74;;
74788;SDS011;63313;48.258;12.518;2023-05-23T00:14:33;15.260000000000002;;;12.459999999999999;;
74788;SDS011;63313;48.258;12.518;2023-05-23T00:20:00;17.759999999999998;;;13.370000000000001;;
74788;SDS011;63313;48.258;12.518;2023-05-23T00:25:27;23.57;;;14.580000000000002;;
74788;SDS011;63313;48.258;12.518;2023-05-23T00:30:55;16.529999999999998;;;12.95;;
74788;SDS011;63313;48.258;12.518;2023-05-23T00:36:22;17.5;;;12.469999999999999;;
74788;SDS011;63313;48.258;12.518;2023-05-23T00:41:49;18.07;;;13.23;;
74788;SDS011;63313;48.258;12.518;2023-05-23T00:47:16;22.110000000000003;;;12.7;;
74788;SDS011;63313;48.258;12.518;2023-05-23T00:52:44;18.57;;;12.49;;
74788;SDS011;63313;48.258;12.518;2023-05-23T00:58:11;15.459999999999999;;;11.129999999999999;;
74788;SDS011;63313;48.258;12.518;2023-05-23T01:03:39;19.82;;;12.670000000000002;;
74788;SDS011;63313;48.258;12.518;2023-05-23T01:09:06;18.049999999999997;;;13.030000000000001;;
74788;SDS011;63313;48.258;12.518;2023-05-23T01:14:34;20.91;;;13.52;;
74788;SDS011;63313;48.258;12.518;2023-05-23T01:20:05;17.830000000000002;;;13.169999999999998;;
74788;SDS011;63313;48.258;12.518;2023-05-23T01:25:38;19.779999999999998;;;12.55;;
74788;SDS011;63313;48.258;12.518;2023-05-23T01:31:10;18.509999999999998;;;13.52;;
74788;SDS011;63313;48.258;12.518;2023-05-23T01:36:39;18.110000000000003;;;12.7;;
74788;SDS011;63313;48.258;12.518;2023-05-23T01:42:06;22.76;;;13.95;;
74788;SDS011;63313;48.258;12.518;2023-05-23T01:47:34;17.27;;;13.01;;
74788;SDS011;63313;48.258;12.518;2023-05-23T01:53:01;19.5;;;13.26;;
74788;SDS011;63313;48.258;12.518;2023-05-23T01:58:29;16.64;;;11.63;;
74788;SDS011;63313;48.258;12.518;2023-05-23T02:03:56;17.49;;;12.66;;
74788;SDS011;63313;48.258;12.518;2023-05-23T02:09:23;18.68;;;11.849999999999998;;
74788;SDS011;63313;48.258;12.518;2023-05-23T02:14:50;18.32;;;10.97;;
74788;SDS011;63313;48.258;12.518;2023-05-23T02:20:17;17.11;;;11.9;;
74788;SDS011;63313;48.258;12.518;2023-05-23T02:25:44;18.17;;;12.74;;
74788;SDS011;63313;48.258;12.518;2023-05-23T02:31:12;15.25;;;11.620000000000001;;
74788;SDS011;63313;48.258;12.518;2023-05-23T02:36:39;13.95;;;10.73;;
74788;SDS011;63313;48.258;12.518;2023-05-23T02:42:06;21.19;;;12.18;;
74788;SDS011;63313;48.258;12.518;2023-05-23T02:47:33;16.77;;;11.669999999999998;;
74788;SDS011;63313;48.258;12.518;2023-05-23T02:53:00;18.93;;;12.08;;
74788;SDS011;63313;48.258;12.518;2023-05-23T02:58:27;20.61;;;13.160000000000002;;
74788;SDS011;63313;48.258;12.518;2023-05-23T03:03:54;17.560000000000002;;;12.27;;
74788;SDS011;63313;48.258;12.518;2023-05-23T03:09:21;15.55;;;11.66;;
74788;SDS011;63313;48.258;12.518;2023-05-23T03:14:49;15.289999999999997;;;11.89;;
74788;SDS011;63313;48.258;12.518;2023-05-23T03:20:16;19.970000000000006;;;12.929999999999998;;
74788;SDS011;63313;48.258;12.518;2023-05-23T03:25:43;17.5;;;13.11;;
74788;SDS011;63313;48.258;12.518;2023-05-23T03:31:10;17.8;;;11.81;;
74788;SDS011;63313;48.258;12.518;2023-05-23T03:36:37;24.04;;;12.63;;
74788;SDS011;63313;48.258;12.518;2023-05-23T03:42:04;17.029999999999998;;;11.100000000000001;;
74788;SDS011;63313;48.258;12.518;2023-05-23T03:47:32;17.729999999999997;;;12.1;;
74788;SDS011;63313;48.258;12.518;2023-05-23T03:52:59;17.759999999999998;;;12.64;;
74788;SDS011;63313;48.258;12.518;2023-05-23T03:58:26;16.4;;;12.040000000000001;;
74788;SDS011;63313;48.258;12.518;2023-05-23T04:03:53;15.929999999999998;;;11.669999999999998;;
74788;SDS011;63313;48.258;12.518;2023-05-23T04:09:20;20.900000000000002;;;11.99;;
74788;SDS011;63313;48.258;12.518;2023-05-23T04:14:47;18.220000000000002;;;12.5;;
74788;SDS011;63313;48.258;12.518;2023-05-23T04:20:14;16.799999999999997;;;11.190000000000001;;
74788;SDS011;63313;48.258;12.518;2023-05-23T04:25:41;18.529999999999998;;;12.799999999999999;;
74788;SDS011;63313;48.258;12.518;2023-05-23T04:31:08;21.020000000000003;;;12.129999999999999;;
74788;SDS011;63313;48.258;12.518;2023-05-23T04:36:35;17.25;;;12.03;;
74788;SDS011;63313;48.258;12.518;2023-05-23T04:42:02;17.009999999999998;;;12.570000000000002;;
74788;SDS011;63313;48.258;12.518;2023-05-23T04:47:29;16.95;;;12.49;;
74788;SDS011;63313;48.258;12.518;2023-05-23T04:52:56;17.75;;;11.45;;
74788;SDS011;63313;48.258;12.518;2023-05-23T04:58:24;15.020000000000001;;;11.690000000000001;;
74788;SDS011;63313;48.258;12.518;2023-05-23T05:03:51;15.61;;;12.569999999999999;;
74788;SDS011;63313;48.258;12.518;2023-05-23T05:09:18;20.339999999999996;;;12.790000000000001;;
74788;SDS011;63313;48.258;12.518;2023-05-23T05:14:45;17.59;;;12.559999999999999;;
74788;SDS011;63313;48.258;12.518;2023-05-23T05:20:12;16.36;;;11.32;;
74788;SDS011;63313;48.258;12.518;2023-05-23T05:25:39;17.550000000000004;;;11.64;;
74788;SDS011;63313;48.258;12.518;2023-05-23T05:31:06;17.71;;;11.56;;
74788;SDS011;63313;48.258;12.518;2023-05-23T05:36:33;18.56;;;12.120000000000001;;
74788;SDS011;63313;48.258;12.518;2023-05-23T05:42:00;22.31;;;12.99;;
74788;SDS011;63313;48.258;12.518;2023-05-23T05:47:27;18.169999999999998;;;13.139999999999997;;
74788;SDS011;63313;48.258;12.518;2023-05-23T05:52:55;25.889999999999997;;;14.030000000000001;;
74788;SDS011;63313;48.258;12.518;2023-05-23T05:58:22;18.630000000000003;;;14.430000000000001;;
74788;SDS011;63313;48.258;12.518;2023-05-23T06:03:49;20.589999999999996;;;14.38;;
74788;SDS011;63313;48.258;12.518;2023-05-23T06:09:16;20.28;;;13.580000000000002;;
74788;SDS011;63313;48.258;12.518;2023-05-23T06:14:43;20.330000000000002;;;13.65;;
74788;SDS011;63313;48.258;12.518;2023-05-23T06:20:10;23.919999999999998;;;14.51;;
74788;SDS011;63313;48.258;12.518;2023-05-23T06:25:37;19.32;;;13.709999999999999;;
74788;SDS011;63313;48.258;12.518;2023-05-23T06:31:05;20.330000000000002;;;14.4;;
74788;SDS011;63313;48.258;12.518;2023-05-23T06:36:32;19.19;;;13.379999999999999;;
74788;SDS011;63313;48.258;12.518;2023-05-23T06:41:59;22.279999999999998;;;13.809999999999999;;
74788;SDS011;63313;48.258;12.518;2023-05-23T06:47:26;18.659999999999997;;;13.379999999999999;;
74788;SDS011;63313;48.258;12.518;2023-05-23T06:52:53;19.65;;;13.919999999999998;;
74788;SDS011;63313;48.258;12.518;2023-05-23T06:58:20;19.740000000000002;;;14.190000000000001;;
74788;SDS011;63313;48.258;12.518;2023-05-23T07:03:48;17.29;;;13.889999999999997;;
74788;SDS011;63313;48.258;12.518;2023-05-23T07:09:15;18.38;;;13.66;;
74788;SDS011;63313;48.258;12.518;2023-05-23T07:14:42;22.29;;;13.9;;
74788;SDS011;63313;48.258;12.518;2023-05-23T07:20:09;19.720000000000002;;;15.39;;
74788;SDS011;63313;48.258;12.518;2023-05-23T07:25:36;20.240000000000002;;;14.900000000000002;;
74788;SDS011;63313;48.258;12.518;2023-05-23T07:31:03;23.92;;;15.930000000000001;;
74788;SDS011;63313;48.258;12.518;2023-05-23T07:36:30;21.77;;;15.419999999999998;;
74788;SDS011;63313;48.258;12.518;2023-05-23T07:41:58;21.04;;;15.029999999999998;;
74788;SDS011;63313;48.258;12.518;2023-05-23T07:47:25;27.380000000000003;;;16.11;;
74788;SDS011;63313;48.258;12.518;2023-05-23T07:52:52;24.8;;;17.04;;
74788;SDS011;63313;48.258;12.518;2023-05-23T07:58:19;29.830000000000002;;;16.720000000000002;;
74788;SDS011;63313;48.258;12.518;2023-05-23T08:03:46;25.36;;;16.419999999999998;;
74788;SDS011;63313;48.258;12.518;2023-05-23T08:09:13;22.05;;;16.25;;
74788;SDS011;63313;48.258;12.518;2023-05-23T08:14:40;21.240000000000002;;;14.959999999999999;;
74788;SDS011;63313;48.258;12.518;2023-05-23T08:20:08;18.07;;;14.52;;
74788;SDS011;63313;48.258;12.518;2023-05-23T08:25:35;19.779999999999998;;;14.75;;
74788;SDS011;63313;48.258;12.518;2023-05-23T08:31:02;26.52;;;16.24;;
74788;SDS011;63313;48.258;12.518;2023-05-23T08:36:29;20.81;;;14.879999999999999;;
74788;SDS011;63313;48.258;12.518;2023-05-23T08:41:56;25.889999999999997;;;15.470000000000002;;
74788;SDS011;63313;48.258;12.518;2023-05-23T08:47:24;22.51;;;16.479999999999997;;
74788;SDS011;63313;48.258;12.518;2023-05-23T08:52:53;25.169999999999998;;;16.259999999999998;;
74788;SDS011;63313;48.258;12.518;2023-05-23T08:58:20;24.61;;;14.839999999999998;;
74788;SDS011;63313;48.258;12.518;2023-05-23T09:03:48;24.52;;;15.26;;
74788;SDS011;63313;48.258;12.518;2023-05-23T09:09:15;18.279999999999998;;;14.86;;
74788;SDS011;63313;48.258;12.518;2023-05-23T09:14:42;23.47;;;15.1;;
74788;SDS011;63313;48.258;12.518;2023-05-23T09:20:10;21.92;;;15.290000000000001;;
74788;SDS011;63313;48.258;12.518;2023-05-23T09:25:38;23.94;;;15.080000000000002;;
74788;SDS011;63313;48.258;12.518;2023-05-23T09:31:11;20.41;;;14.709999999999999;;
74788;SDS011;63313;48.258;12.518;2023-05-23T09:36:39;21.96;;;15.24;;
74788;SDS011;63313;48.258;12.518;2023-05-23T09:42:07;21.560000000000002;;;15.959999999999999;;
74788;SDS011;63313;48.258;12.518;2023-05-23T09:47:34;20.39;;;15.36;;
74788;SDS011;63313;48.258;12.518;2023-05-23T09:53:01;17.0;;;14.0;;
74788;SDS011;63313;48.258;12.518;2023-05-23T09:58:28;15.229999999999999;;;11.89;;
74788;SDS011;63313;48.258;12.518;2023-05-23T10:03:55;17.93;;;13.819999999999999;;
74788;SDS011;63313;48.258;12.518;2023-05-23T10:09:23;22.57;;;14.560000000000002;;
74788;SDS011;63313;48.258;12.518;2023-05-23T10:14:51;24.35;;;15.61;;
74788;SDS011;63313;48.258;12.518;2023-05-23T10:20:21;22.0;;;16.869999999999997;;
74788;SDS011;63313;48.258;12.518;2023-05-23T10:25:50;20.679999999999996;;;15.39;;
74788;SDS011;63313;48.258;12.518;2023-05-23T10:31:17;20.14;;;15.98;;
74788;SDS011;63313;48.258;12.518;2023-05-23T10:36:48;21.68;;;15.23;;
74788;SDS011;63313;48.258;12.518;2023-05-23T10:42:18;18.800000000000004;;;14.680000000000001;;
74788;SDS011;63313;48.258;12.518;2023-05-23T10:47:47;15.550000000000002;;;11.739999999999998;;
74788;SDS011;63313;48.258;12.518;2023-05-23T10:53:15;19.450000000000003;;;12.98;;
74788;SDS011;63313;48.258;12.518;2023-05-23T10:58:42;15.079999999999998;;;11.110000000000001;;
74788;SDS011;63313;48.258;12.518;2023-05-23T11:04:09;18.59;;;13.14;;
74788;SDS011;63313;48.258;12.518;2023-05-23T11:09:37;20.759999999999998;;;13.73;;
74788;SDS011;63313;48.258;12.518;2023-05-23T11:15:28;19.259999999999998;;;14.2;;
74788;SDS011;63313;48.258;12.518;2023-05-23T11:21:07;17.84;;;12.24;;
74788;SDS011;63313;48.258;12.518;2023-05-23T11:26:34;16.939999999999998;;;12.69;;
74788;SDS011;63313;48.258;12.518;2023-05-23T11:32:07;14.629999999999999;;;10.43;;
74788;SDS011;63313;48.258;12.518;2023-05-23T11:37:37;14.1;;;9.2;;
74788;SDS011;63313;48.258;12.518;2023-05-23T11:43:04;13.38;;;10.59;;
74788;SDS011;63313;48.258;12.518;2023-05-23T11:48:32;14.01;;;10.36;;
74788;SDS011;63313;48.258;12.518;2023-05-23T11:53:59;14.209999999999999;;;10.879999999999999;;
74788;SDS011;63313;48.258;12.518;2023-05-23T11:59:27;14.49;;;10.39;;
74788;SDS011;63313;48.258;12.518;2023-05-23T12:04:54;13.290000000000001;;;11.169999999999998;;
74788;SDS011;63313;48.258;12.518;2023-05-23T12:10:25;13.52;;;9.120000000000001;;
74788;SDS011;63313;48.258;12.518;2023-05-23T12:15:53;12.780000000000001;;;9.959999999999999;;
74788;SDS011;63313;48.258;12.518;2023-05-23T12:21:23;15.4;;;9.39;;
74788;SDS011;63313;48.258;12.518;2023-05-23T12:26:51;14.190000000000001;;;9.309999999999999;;
74788;SDS011;63313;48.258;12.518;2023-05-23T12:32:19;11.620000000000001;;;9.55;;
74788;SDS011;63313;48.258;12.518;2023-05-23T12:37:46;10.9;;;8.92;;
74788;SDS011;63313;48.258;12.518;2023-05-23T12:43:14;16.300000000000004;;;9.809999999999999;;
74788;SDS011;63313;48.258;12.518;2023-05-23T12:48:41;13.61;;;9.77;;
74788;SDS011;63313;48.258;12.518;2023-05-23T12:54:08;12.68;;;9.389999999999999;;
74788;SDS011;63313;48.258;12.518;2023-05-23T12:59:35;13.41;;;8.74;;
74788;SDS011;63313;48.258;12.518;2023-05-23T13:05:02;9.17;;;7.780000000000001;;
74788;SDS011;63313;48.258;12.518;2023-05-23T13:10:30;13.069999999999999;;;8.939999999999998;;
74788;SDS011;63313;48.258;12.518;2023-05-23T13:15:57;12.12;;;8.39;;
74788;SDS011;63313;48.258;12.518;2023-05-23T13:21:24;12.87;;;8.34;;
74788;SDS011;63313;48.258;12.518;2023-05-23T13:26:51;14.41;;;8.780000000000001;;
74788;SDS011;63313;48.258;12.518;2023-05-23T13:32:18;14.41;;;8.870000000000001;;
74788;SDS011;63313;48.258;12.518;2023-05-23T13:37:45;11.59;;;7.7700000000000005;;
74788;SDS011;63313;48.258;12.518;2023-05-23T13:43:12;15.49;;;8.709999999999999;;
74788;SDS011;63313;48.258;12.518;2023-05-23T13:48:40;11.88;;;8.37;;
74788;SDS011;63313;48.258;12.518;2023-05-23T13:54:07;11.56;;;9.05;;
74788;SDS011;63313;48.258;12.518;2023-05-23T13:59:34;13.7;;;8.840000000000002;;
74788;SDS011;63313;48.258;12.518;2023-05-23T14:05:01;8.41;;;7.6;;
74788;SDS011;63313;48.258;12.518;2023-05-23T14:10:28;7.8;;;6.989999999999999;;
74788;SDS011;63313;48.258;12.518;2023-05-23T14:15:55;10.610000000000001;;;7.159999999999999;;
74788;SDS011;63313;48.258;12.518;2023-05-23T14:21:22;8.3;;;7.089999999999999;;
74788;SDS011;63313;48.258;12.518;2023-05-23T14:26:50;10.219999999999999;;;6.62;;
74788;SDS011;63313;48.258;12.518;2023-05-23T14:32:17;7.860000000000001;;;6.68;;
74788;SDS011;63313;48.258;12.518;2023-05-23T14:37:44;7.33;;;6.619999999999999;;
74788;SDS011;63313;48.258;12.518;2023-05-23T14:43:11;8.09;;;6.909999999999999;;
74788;SDS011;63313;48.258;12.518;2023-05-23T14:48:38;7.609999999999999;;;6.62;;
74788;SDS011;63313;48.258;12.518;2023-05-23T14:54:05;11.85;;;6.88;;
74788;SDS011;63313;48.258;12.518;2023-05-23T14:59:32;8.59;;;6.9;;
74788;SDS011;63313;48.258;12.518;2023-05-23T15:05:00;9.120000000000001;;;7.0;;
74788;SDS011;63313;48.258;12.518;2023-05-23T15:10:27;10.04;;;8.239999999999998;;
74788;SDS011;63313;48.258;12.518;2023-05-23T15:15:54;10.95;;;8.510000000000002;;
74788;SDS011;63313;48.258;12.518;2023-05-23T15:21:21;16.49;;;7.570000000000002;;
74788;SDS011;63313;48.258;12.518;2023-05-23T15:26:48;12.76;;;8.040000000000001;;
74788;SDS011;63313;48.258;12.518;2023-05-23T15:32:15;13.35;;;7.7;;
74788;SDS011;63313;48.258;12.518;2023-05-23T15:37:42;9.389999999999999;;;7.660000000000001;;
74788;SDS011;63313;48.258;12.518;2023-05-23T15:43:09;15.49;;;7.880000000000001;;
74788;SDS011;63313;48.258;12.518;2023-05-23T15:48:36;8.23;;;6.709999999999999;;
74788;SDS011;63313;48.258;12.518;2023-05-23T15:54:03;8.290000000000001;;;6.76;;
74788;SDS011;63313;48.258;12.518;2023-05-23T15:59:31;20.380000000000003;;;5.84;;
74788;SDS011;63313;48.258;12.518;2023-05-23T16:04:58;7.9799999999999995;;;5.5200000000000005;;
74788;SDS011;63313;48.258;12.518;2023-05-23T16:10:25;11.080000000000002;;;5.909999999999999;;
74788;SDS011;63313;48.258;12.518;2023-05-23T16:15:52;12.540000000000003;;;5.96;;
74788;SDS011;63313;48.258;12.518;2023-05-23T16:21:19;8.33;;;6.529999999999999;;
74788;SDS011;63313;48.258;12.518;2023-05-23T16:26:46;8.490000000000002;;;5.61;;
74788;SDS011;63313;48.258;12.518;2023-05-23T16:32:13;8.83;;;5.4799999999999995;;
74788;SDS011;63313;48.258;12.518;2023-05-23T16:37:40;9.82;;;5.68;;
74788;SDS011;63313;48.258;12.518;2023-05-23T16:43:07;8.000000000000002;;;4.680000000000001;;
74788;SDS011;63313;48.258;12.518;2023-05-23T16:48:34;8.08;;;4.26;;
74788;SDS011;63313;48.258;12.518;2023-05-23T16:54:01;6.780000000000001;;;3.9899999999999998;;
74788;SDS011;63313;48.258;12.518;2023-05-23T16:59:28;5.35;;;4.470000000000001;;
74788;SDS011;63313;48.258;12.518;2023-05-23T17:04:56;6.739999999999999;;;4.039999999999999;;
74788;SDS011;63313;48.258;12.518;2023-05-23T17:10:23;7.409999999999999;;;3.6700000000000004;;
74788;SDS011;63313;48.258;12.518;2023-05-23T17:15:50;7.140000000000001;;;4.279999999999999;;
74788;SDS011;63313;48.258;12.518;2023-05-23T17:21:17;5.339999999999999;;;3.75;;
74788;SDS011;63313;48.258;12.518;2023-05-23T17:26:44;5.369999999999999;;;3.6399999999999997;;
74788;SDS011;63313;48.258;12.518;2023-05-23T17:32:11;6.28;;;3.3600000000000003;;
74788;SDS011;63313;48.258;12.518;2023-05-23T17:37:38;5.26;;;3.2600000000000002;;
74788;SDS011;63313;48.258;12.518;2023-05-23T17:43:05;3.97;;;3.2699999999999996;;
74788;SDS011;63313;48.258;12.518;2023-05-23T17:48:32;7.709999999999999;;;3.34;;
74788;SDS011;63313;48.258;12.518;2023-05-23T17:53:59;3.87;;;2.8900000000000006;;
74788;SDS011;63313;48.258;12.518;2023-05-23T17:59:26;3.63;;;3.14;;
74788;SDS011;63313;48.258;12.518;2023-05-23T18:04:53;5.450000000000001;;;3.63;;
74788;SDS011;63313;48.258;12.518;2023-05-23T18:10:21;7.08;;;3.06;;
74788;SDS011;63313;48.258;12.518;2023-05-23T18:15:48;3.3900000000000006;;;2.8899999999999997;;
74788;SDS011;63313;48.258;12.518;2023-05-23T18:21:15;6.8100000000000005;;;3.1399999999999997;;
74788;SDS011;63313;48.258;12.518;2023-05-23T18:26:42;8.27;;;3.4799999999999995;;
74788;SDS011;63313;48.258;12.518;2023-05-23T18:32:09;3.34;;;3.04;;
74788;SDS011;63313;48.258;12.518;2023-05-23T18:37:36;3.9599999999999995;;;3.4099999999999993;;
74788;SDS011;63313;48.258;12.518;2023-05-23T18:43:03;3.6700000000000004;;;2.69;;
74788;SDS011;63313;48.258;12.518;2023-05-23T18:48:30;4.33;;;2.94;;
74788;SDS011;63313;48.258;12.518;2023-05-23T18:53:57;5.58;;;3.3299999999999996;;
74788;SDS011;63313;48.258;12.518;2023-05-23T18:59:25;4.51;;;2.9499999999999997;;
74788;SDS011;63313;48.258;12.518;2023-05-23T19:04:52;8.17;;;3.2199999999999998;;
74788;SDS011;63313;48.258;12.518;2023-05-23T19:10:19;4.49;;;3.28;;
74788;SDS011;63313;48.258;12.518;2023-05-23T19:15:46;4.27;;;3.0300000000000002;;
74788;SDS011;63313;48.258;12.518;2023-05-23T19:21:13;8.819999999999999;;;3.04;;
74788;SDS011;63313;48.258;12.518;2023-05-23T19:26:40;9.1;;;3.14;;
74788;SDS011;63313;48.258;12.518;2023-05-23T19:32:07;3.8999999999999995;;;3.4;;
74788;SDS011;63313;48.258;12.518;2023-05-23T19:37:34;4.46;;;2.98;;
74788;SDS011;63313;48.258;12.518;2023-05-23T19:43:01;3.65;;;3.29;;
74788;SDS011;63313;48.258;12.518;2023-05-23T19:48:28;3.8800000000000003;;;3.37;;
74788;SDS011;63313;48.258;12.518;2023-05-23T19:53:56;3.1100000000000003;;;2.75;;
74788;SDS011;63313;48.258;12.518;2023-05-23T19:59:23;4.4799999999999995;;;3.25;;
74788;SDS011;63313;48.258;12.518;2023-05-23T20:04:50;4.57;;;3.2699999999999996;;
74788;SDS011;63313;48.258;12.518;2023-05-23T20:10:17;5.83;;;4.95;;
74788;SDS011;63313;48.258;12.518;2023-05-23T20:15:44;5.05;;;4.55;;
74788;SDS011;63313;48.258;12.518;2023-05-23T20:21:11;6.44;;;4.41;;
74788;SDS011;63313;48.258;12.518;2023-05-23T20:26:38;5.3;;;4.69;;
74788;SDS011;63313;48.258;12.518;2023-05-23T20:32:05;5.78;;;4.06;;
74788;SDS011;63313;48.258;12.518;2023-05-23T20:37:32;5.49;;;4.88;;
74788;SDS011;63313;48.258;12.518;2023-05-23T20:43:00;5.57;;;4.32;;
74788;SDS011;63313;48.258;12.518;2023-05-23T20:48:27;5.44;;;4.18;;
74788;SDS011;63313;48.258;12.518;2023-05-23T20:53:54;4.49;;;4.0600000000000005;;
74788;SDS011;63313;48.258;12.518;2023-05-23T20:59:21;7.210000000000001;;;4.06;;
74788;SDS011;63313;48.258;12.518;2023-05-23T21:04:48;4.37;;;3.9899999999999998;;
74788;SDS011;63313;48.258;12.518;2023-05-23T21:10:15;5.45;;;4.34;;
74788;SDS011;63313;48.258;12.518;2023-05-23T21:15:42;4.34;;;3.8699999999999997;;
74788;SDS011;63313;48.258;12.518;2023-05-23T21:21:09;5.339999999999999;;;4.029999999999999;;
74788;SDS011;63313;48.258;12.518;2023-05-23T21:26:36;5.17;;;4.2700000000000005;;
74788;SDS011;63313;48.258;12.518;2023-05-23T21:32:03;5.159999999999999;;;4.369999999999999;;
74788;SDS011;63313;48.258;12.518;2023-05-23T21:37:31;5.4799999999999995;;;4.1899999999999995;;
74788;SDS011;63313;48.258;12.518;2023-05-23T21:42:58;5.39;;;4.430000000000001;;
74788;SDS011;63313;48.258;12.518;2023-05-23T21:48:25;7.63;;;4.46;;
74788;SDS011;63313;48.258;12.518;2023-05-23T21:53:52;5.220000000000001;;;4.69;;
74788;SDS011;63313;48.258;12.518;2023-05-23T21:59:19;4.95;;;4.249999999999999;;
74788;SDS011;63313;48.258;12.518;2023-05-23T22:04:46;7.7;;;4.3999999999999995;;
74788;SDS011;63313;48.258;12.518;2023-05-23T22:10:13;5.76;;;4.34;;
74788;SDS011;63313;48.258;12.518;2023-05-23T22:15:40;8.499999999999998;;;4.83;;
74788;SDS011;63313;48.258;12.518;2023-05-23T22:21:07;11.809999999999999;;;5.5;;
74788;SDS011;63313;48.258;12.518;2023-05-23T22:26:34;5.82;;;4.87;;
74788;SDS011;63313;48.258;12.518;2023-05-23T22:32:01;6.110000000000001;;;4.18;;
74788;SDS011;63313;48.258;12.518;2023-05-23T22:37:29;7.85;;;4.550000000000001;;
74788;SDS011;63313;48.258;12.518;2023-05-23T22:42:56;5.46;;;4.369999999999999;;
74788;SDS011;63313;48.258;12.518;2023-05-23T22:48:23;6.880000000000001;;;4.3;;
74788;SDS011;63313;48.258;12.518;2023-05-23T22:53:50;5.7700000000000005;;;4.26;;
74788;SDS011;63313;48.258;12.518;2023-05-23T22:59:17;7.510000000000001;;;4.3100000000000005;;
74788;SDS011;63313;48.258;12.518;2023-05-23T23:04:44;7.01;;;4.88;;
74788;SDS011;63313;48.258;12.518;2023-05-23T23:10:11;5.4799999999999995;;;4.5600000000000005;;
74788;SDS011;63313;48.258;12.518;2023-05-23T23:15:38;5.36;;;4.49;;
74788;SDS011;63313;48.258;12.518;2023-05-23T23:21:05;7.360000000000001;;;5.51;;
74788;SDS011;63313;48.258;12.518;2023-05-23T23:26:32;5.930000000000001;;;5.21;;
74788;SDS011;63313;48.258;12.518;2023-05-23T23:31:59;7.529999999999999;;;5.479999999999999;;
74788;SDS011;63313;48.258;12.518;2023-05-23T23:37:27;7.030000000000001;;;5.54;;
74788;SDS011;63313;48.258;12.518;2023-05-23T23:42:54;8.860000000000001;;;5.589999999999999;;
74788;SDS011;63313;48.258;12.518;2023-05-23T23:48:21;7.360000000000001;;;5.319999999999999;;
74788;SDS011;63313;48.258;12.518;2023-05-23T23:53:48;10.63;;;5.5600000000000005;;
74788;SDS011;63313;48.258;12.518;2023-05-23T23:59:15;6.4399999999999995;;;5.510000000000001;;
